createdAt,value
2017-10-04T00:01:33.341Z,13.00
2017-10-04T00:04:00.282Z,12.97
2017-10-04T00:06:27.216Z,12.77
2017-10-04T00:08:56.062Z,13.05
2017-10-04T00:11:22.889Z,12.78
2017-10-04T00:13:52.903Z,13.11
2017-10-04T00:16:22.450Z,12.89
2017-10-04T00:18:49.288Z,13.07
2017-10-04T00:21:16.129Z,12.91
2017-10-04T00:23:42.982Z,12.86
2017-10-04T00:26:09.846Z,12.94
2017-10-04T00:28:36.667Z,13.03
2017-10-04T00:31:03.558Z,13.10
2017-10-04T00:33:30.405Z,13.16
2017-10-04T00:35:57.215Z,13.02
2017-10-04T00:38:24.087Z,13.18
2017-10-04T00:40:51.693Z,13.10
2017-10-04T00:43:19.251Z,13.02
2017-10-04T00:45:46.804Z,13.08
2017-10-04T00:48:13.636Z,12.98
2017-10-04T00:50:40.466Z,12.97
2017-10-04T00:53:07.298Z,13.02
2017-10-04T00:55:34.908Z,12.93
2017-10-04T00:58:01.815Z,12.95
2017-10-04T01:00:31.608Z,12.97
2017-10-04T01:02:58.552Z,12.76
2017-10-04T01:05:26.150Z,13.04
2017-10-04T01:07:53.146Z,12.94
2017-10-04T01:10:20.076Z,13.02
2017-10-04T01:12:46.991Z,12.88
2017-10-04T01:15:13.968Z,12.84
2017-10-04T01:17:41.640Z,12.86
2017-10-04T01:20:09.277Z,13.00
2017-10-04T01:22:36.171Z,12.50
2017-10-04T01:25:03.009Z,12.80
2017-10-04T01:27:29.922Z,12.86
2017-10-04T01:29:57.501Z,12.92
2017-10-04T01:32:24.318Z,12.91
2017-10-04T01:34:51.174Z,12.92
2017-10-04T01:37:19.747Z,12.92
2017-10-04T01:39:48.013Z,12.84
2017-10-04T01:42:18.265Z,12.73
2017-10-04T01:44:47.003Z,12.85
2017-10-04T01:47:13.823Z,12.76
2017-10-04T01:49:42.939Z,12.70
2017-10-04T01:52:09.822Z,12.49
2017-10-04T01:54:36.644Z,12.63
2017-10-04T01:57:04.203Z,12.64
2017-10-04T01:59:31.068Z,12.75
2017-10-04T02:01:58.013Z,12.67
2017-10-04T02:04:24.911Z,12.52
2017-10-04T02:06:52.503Z,12.60
2017-10-04T02:09:19.307Z,12.75
2017-10-04T02:11:46.188Z,12.76
2017-10-04T02:14:13.031Z,12.78
2017-10-04T02:16:39.875Z,12.68
2017-10-04T02:19:06.715Z,12.56
2017-10-04T02:21:33.581Z,12.71
2017-10-04T02:24:00.402Z,12.64
2017-10-04T02:26:27.211Z,12.65
2017-10-04T02:28:54.145Z,12.81
2017-10-04T02:31:23.559Z,12.80
2017-10-04T02:33:51.347Z,12.84
2017-10-04T02:36:18.912Z,12.66
2017-10-04T02:38:45.830Z,12.85
2017-10-04T02:41:12.662Z,12.81
2017-10-04T02:43:39.543Z,12.63
2017-10-04T02:46:06.379Z,12.70
2017-10-04T02:48:33.971Z,12.74
2017-10-04T02:51:00.867Z,12.70
2017-10-04T02:53:27.708Z,12.61
2017-10-04T02:55:54.539Z,12.80
2017-10-04T02:58:21.367Z,12.67
2017-10-04T03:00:48.212Z,12.53
2017-10-04T03:03:15.070Z,12.56
2017-10-04T03:05:41.920Z,12.44
2017-10-04T03:08:08.748Z,12.44
2017-10-04T03:10:35.566Z,12.59
2017-10-04T03:13:02.452Z,12.75
2017-10-04T03:15:29.406Z,12.65
2017-10-04T03:17:56.220Z,12.72
2017-10-04T03:20:23.077Z,12.62
2017-10-04T03:22:49.910Z,12.68
2017-10-04T03:25:17.467Z,12.67
2017-10-04T03:27:44.349Z,12.46
2017-10-04T03:30:11.899Z,12.64
2017-10-04T03:32:38.778Z,12.55
2017-10-04T03:35:06.327Z,12.56
2017-10-04T03:37:33.135Z,12.61
2017-10-04T03:39:59.951Z,12.50
2017-10-04T03:42:26.794Z,12.48
2017-10-04T03:44:53.577Z,12.66
2017-10-04T03:47:20.412Z,12.63
2017-10-04T03:49:47.204Z,12.64
2017-10-04T03:52:14.022Z,12.62
2017-10-04T03:54:41.607Z,12.50
2017-10-04T03:57:08.422Z,12.62
2017-10-04T03:59:36.019Z,12.52
2017-10-04T04:02:02.829Z,12.47
2017-10-04T04:04:29.640Z,12.53
2017-10-04T04:06:56.512Z,12.51
2017-10-04T04:09:23.331Z,12.45
2017-10-04T04:11:50.123Z,12.39
2017-10-04T04:14:16.910Z,12.59
2017-10-04T04:16:44.134Z,12.53
2017-10-04T04:19:11.803Z,12.55
2017-10-04T04:21:39.418Z,12.46
2017-10-04T04:24:06.302Z,12.41
2017-10-04T04:26:33.158Z,12.33
2017-10-04T04:29:00.164Z,12.46
2017-10-04T04:31:26.993Z,12.47
2017-10-04T04:33:53.797Z,12.44
2017-10-04T04:36:21.340Z,12.32
2017-10-04T04:39:00.376Z,12.43
2017-10-04T04:41:27.229Z,12.19
2017-10-04T04:43:54.011Z,12.16
2017-10-04T04:46:20.889Z,12.20
2017-10-04T04:48:47.723Z,12.40
2017-10-04T04:51:14.561Z,12.46
2017-10-04T04:53:41.442Z,12.34
2017-10-04T04:56:08.349Z,12.46
2017-10-04T04:58:35.955Z,12.39
2017-10-04T05:01:02.774Z,12.34
2017-10-04T05:03:29.611Z,12.24
2017-10-04T05:05:56.452Z,12.31
2017-10-04T05:08:23.253Z,12.38
2017-10-04T05:10:50.062Z,12.35
2017-10-04T05:13:16.886Z,12.32
2017-10-04T05:15:44.478Z,12.31
2017-10-04T05:18:11.390Z,12.41
2017-10-04T05:20:38.212Z,12.41
2017-10-04T05:23:05.110Z,12.31
2017-10-04T05:25:31.904Z,12.34
2017-10-04T05:27:59.489Z,12.34
2017-10-04T05:30:27.127Z,12.38
2017-10-04T05:32:53.911Z,12.36
2017-10-04T05:35:20.730Z,12.37
2017-10-04T05:37:47.547Z,12.36
2017-10-04T05:40:15.101Z,12.36
2017-10-04T05:42:41.928Z,12.26
2017-10-04T05:45:09.513Z,12.34
2017-10-04T05:47:36.355Z,12.35
2017-10-04T05:50:03.205Z,12.28
2017-10-04T05:52:30.042Z,12.33
2017-10-04T05:54:56.886Z,12.34
2017-10-04T05:57:23.758Z,12.34
2017-10-04T05:59:50.604Z,12.39
2017-10-04T06:02:17.435Z,12.18
2017-10-04T06:04:44.311Z,12.27
2017-10-04T06:07:11.172Z,12.19
2017-10-04T06:09:37.978Z,12.10
2017-10-04T06:12:05.533Z,12.14
2017-10-04T06:14:32.368Z,12.11
2017-10-04T06:16:59.168Z,12.33
2017-10-04T06:19:26.784Z,12.22
2017-10-04T06:21:53.665Z,12.01
2017-10-04T06:24:20.533Z,12.33
2017-10-04T06:26:47.395Z,12.17
2017-10-04T06:29:14.313Z,12.21
2017-10-04T06:31:41.219Z,12.19
2017-10-04T06:34:08.067Z,12.26
2017-10-04T06:36:34.965Z,12.12
2017-10-04T06:39:01.775Z,12.36
2017-10-04T06:41:28.634Z,12.30
2017-10-04T06:43:55.465Z,12.26
2017-10-04T06:46:23.051Z,12.22
2017-10-04T06:48:50.598Z,12.26
2017-10-04T06:51:17.466Z,12.42
2017-10-04T06:53:44.338Z,12.26
2017-10-04T06:56:11.183Z,12.32
2017-10-04T06:58:38.020Z,12.38
2017-10-04T07:01:04.922Z,12.33
2017-10-04T07:03:31.753Z,12.57
2017-10-04T07:05:58.755Z,12.48
2017-10-04T07:08:26.332Z,12.55
2017-10-04T07:10:54.043Z,12.54
2017-10-04T07:13:20.901Z,12.59
2017-10-04T07:15:47.822Z,12.56
2017-10-04T07:18:14.729Z,12.55
2017-10-04T07:20:41.579Z,12.62
2017-10-04T07:23:08.440Z,12.63
2017-10-04T07:25:35.352Z,12.65
2017-10-04T07:28:02.243Z,12.59
2017-10-04T07:30:29.863Z,12.63
2017-10-04T07:32:56.724Z,12.51
2017-10-04T07:35:23.679Z,12.67
2017-10-04T07:37:50.545Z,12.77
2017-10-04T07:40:17.429Z,12.69
2017-10-04T07:42:44.261Z,12.75
2017-10-04T07:45:11.207Z,12.72
2017-10-04T07:47:38.776Z,12.73
2017-10-04T07:50:06.337Z,12.75
2017-10-04T07:52:33.174Z,12.80
2017-10-04T07:55:00.019Z,12.88
2017-10-04T07:57:26.870Z,12.96
2017-10-04T07:59:53.686Z,12.88
2017-10-04T08:02:21.267Z,13.07
2017-10-04T08:04:49.000Z,13.20
2017-10-04T08:07:15.854Z,13.15
2017-10-04T08:09:42.695Z,13.18
2017-10-04T08:12:10.246Z,13.24
2017-10-04T08:14:37.095Z,13.28
2017-10-04T08:17:03.937Z,13.35
2017-10-04T08:19:30.773Z,13.43
2017-10-04T08:21:57.597Z,13.41
2017-10-04T08:24:25.187Z,13.43
2017-10-04T08:26:52.754Z,13.58
2017-10-04T08:29:20.377Z,13.52
2017-10-04T08:31:47.279Z,13.48
2017-10-04T08:34:14.129Z,13.60
2017-10-04T08:36:41.134Z,13.70
2017-10-04T08:39:08.743Z,13.62
2017-10-04T08:41:35.580Z,13.80
2017-10-04T08:44:03.216Z,13.77
2017-10-04T08:46:30.078Z,13.82
2017-10-04T08:48:56.975Z,13.86
2017-10-04T08:51:24.521Z,13.94
2017-10-04T08:53:51.444Z,14.00
2017-10-04T08:56:18.324Z,13.98
2017-10-04T08:58:45.112Z,14.04
2017-10-04T09:01:11.966Z,14.06
2017-10-04T09:03:38.816Z,14.00
2017-10-04T09:06:12.836Z,14.10
2017-10-04T09:08:39.679Z,14.18
2017-10-04T09:11:06.501Z,14.23
2017-10-04T09:13:34.052Z,14.14
2017-10-04T09:16:00.870Z,14.14
2017-10-04T09:18:27.675Z,14.42
2017-10-04T09:20:54.577Z,14.49
2017-10-04T09:23:21.372Z,14.66
2017-10-04T09:25:48.185Z,14.62
2017-10-04T09:28:15.782Z,14.75
2017-10-04T09:30:42.589Z,14.75
2017-10-04T09:33:10.063Z,14.81
2017-10-04T09:35:36.898Z,14.71
2017-10-04T09:38:03.730Z,15.02
2017-10-04T09:40:31.381Z,15.01
2017-10-04T09:42:58.722Z,15.01
2017-10-04T09:45:25.627Z,15.01
2017-10-04T09:47:52.471Z,14.98
2017-10-04T09:50:19.351Z,14.88
2017-10-04T09:52:46.951Z,14.89
2017-10-04T09:55:13.894Z,14.73
2017-10-04T09:57:41.508Z,15.00
2017-10-04T10:00:08.390Z,14.80
2017-10-04T10:02:35.212Z,14.54
2017-10-04T10:05:02.109Z,14.91
2017-10-04T10:07:28.931Z,14.76
2017-10-04T10:09:56.518Z,14.96
2017-10-04T10:12:23.392Z,14.93
2017-10-04T10:14:50.213Z,14.81
2017-10-04T10:17:17.826Z,14.89
2017-10-04T10:19:44.740Z,14.60
2017-10-04T10:22:11.610Z,14.93
2017-10-04T10:24:38.431Z,14.93
2017-10-04T10:27:05.255Z,14.90
2017-10-04T10:29:32.867Z,14.91
2017-10-04T10:31:59.822Z,14.92
2017-10-04T10:34:26.707Z,14.85
2017-10-04T10:36:53.551Z,14.92
2017-10-04T10:39:20.408Z,14.95
2017-10-04T10:41:47.269Z,14.84
2017-10-04T10:44:14.190Z,14.96
2017-10-04T10:46:41.736Z,14.76
2017-10-04T10:49:08.652Z,14.99
2017-10-04T10:51:35.585Z,14.98
2017-10-04T10:54:02.478Z,14.88
2017-10-04T10:56:29.303Z,14.99
2017-10-04T10:58:56.175Z,14.91
2017-10-04T11:01:22.998Z,15.21
2017-10-04T11:03:49.991Z,15.25
2017-10-04T11:06:16.831Z,15.32
2017-10-04T11:08:43.775Z,15.18
2017-10-04T11:11:11.613Z,15.38
2017-10-04T11:13:39.192Z,15.29
2017-10-04T11:16:06.779Z,15.11
2017-10-04T11:18:34.407Z,15.37
2017-10-04T11:21:01.245Z,15.33
2017-10-04T11:23:28.070Z,15.39
2017-10-04T11:25:55.693Z,15.54
2017-10-04T11:28:22.590Z,15.47
2017-10-04T11:30:49.443Z,15.61
2017-10-04T11:33:16.296Z,15.62
2017-10-04T11:35:43.223Z,15.73
2017-10-04T11:38:10.072Z,15.73
2017-10-04T11:40:37.672Z,15.73
2017-10-04T11:43:04.526Z,15.85
2017-10-04T11:45:31.377Z,15.77
2017-10-04T11:47:58.262Z,15.74
2017-10-04T11:50:25.140Z,15.76
2017-10-04T11:52:51.986Z,15.73
2017-10-04T11:55:18.847Z,15.82
2017-10-04T11:57:45.657Z,15.65
2017-10-04T12:00:12.572Z,15.76
2017-10-04T12:02:39.385Z,15.99
2017-10-04T12:05:06.204Z,16.07
2017-10-04T12:07:33.040Z,15.99
2017-10-04T12:09:59.867Z,15.87
2017-10-04T12:12:26.725Z,15.91
2017-10-04T12:14:53.579Z,15.76
2017-10-04T12:17:20.439Z,15.70
2017-10-04T12:19:47.414Z,15.79
2017-10-04T12:22:14.357Z,16.00
2017-10-04T12:24:41.151Z,16.02
2017-10-04T12:27:10.101Z,16.12
2017-10-04T12:29:37.708Z,16.03
2017-10-04T12:32:04.583Z,15.86
2017-10-04T12:34:32.468Z,15.80
2017-10-04T12:36:59.415Z,15.50
2017-10-04T12:39:26.237Z,15.79
2017-10-04T12:41:53.044Z,15.81
2017-10-04T12:44:19.895Z,15.81
2017-10-04T12:46:46.898Z,15.66
2017-10-04T12:49:14.476Z,15.88
2017-10-04T12:51:42.939Z,15.86
2017-10-04T12:54:10.575Z,15.63
2017-10-04T12:56:37.438Z,15.71
2017-10-04T12:59:04.319Z,15.67
2017-10-04T13:01:31.187Z,15.57
2017-10-04T13:03:58.605Z,15.72
2017-10-04T13:06:26.187Z,15.76
2017-10-04T13:08:53.804Z,15.78
2017-10-04T13:44:39.387Z,15.26
2017-10-04T13:47:06.338Z,15.64
2017-10-04T13:49:33.981Z,15.04
2017-10-04T13:52:00.867Z,15.40
2017-10-04T13:54:27.777Z,15.36
2017-10-04T13:56:54.644Z,15.45
2017-10-04T13:59:21.478Z,15.13
2017-10-04T14:01:48.454Z,15.26
2017-10-04T14:04:15.355Z,15.30
2017-10-04T14:06:42.202Z,15.32
2017-10-04T14:09:09.032Z,15.31
2017-10-04T14:11:35.922Z,15.20
2017-10-04T14:14:02.802Z,15.15
2017-10-04T14:16:29.643Z,15.30
2017-10-04T14:18:56.562Z,15.36
2017-10-04T14:21:24.115Z,15.19
2017-10-04T14:23:50.976Z,15.29
2017-10-04T14:26:17.927Z,15.15
2017-10-04T14:28:44.792Z,15.02
2017-10-04T14:31:11.717Z,15.10
2017-10-04T14:33:38.634Z,15.05
2017-10-04T14:36:05.487Z,15.00
2017-10-04T14:38:32.396Z,15.10
2017-10-04T14:40:59.385Z,14.82
2017-10-04T14:43:26.251Z,15.12
2017-10-04T14:45:53.167Z,15.18
2017-10-04T14:48:20.732Z,15.19
2017-10-04T14:50:49.619Z,15.05
2017-10-04T14:53:16.546Z,15.07
2017-10-04T14:55:43.479Z,15.10
2017-10-04T14:58:11.078Z,15.16
2017-10-04T15:00:37.975Z,14.75
2017-10-04T15:03:04.821Z,14.79
2017-10-04T15:05:31.674Z,14.88
2017-10-04T15:07:58.485Z,14.87
2017-10-04T15:10:25.320Z,14.93
2017-10-04T15:12:52.147Z,14.66
2017-10-04T15:15:19.683Z,14.92
2017-10-04T15:17:46.514Z,15.00
2017-10-04T15:20:13.446Z,14.79
2017-10-04T15:22:40.251Z,14.80
2017-10-04T15:25:07.075Z,14.85
2017-10-04T15:27:33.954Z,14.77
2017-10-04T15:30:00.834Z,14.76
2017-10-04T15:32:27.671Z,14.82
2017-10-04T15:34:54.533Z,14.73
2017-10-04T15:37:21.392Z,14.71
2017-10-04T15:39:48.325Z,14.80
2017-10-04T15:42:15.215Z,14.79
2017-10-04T15:44:42.055Z,14.77
2017-10-04T15:47:08.898Z,14.53
2017-10-04T15:49:36.502Z,14.74
2017-10-04T15:52:03.377Z,14.54
2017-10-04T15:54:30.317Z,14.52
2017-10-04T15:56:57.183Z,14.43
2017-10-04T15:59:24.083Z,14.56
2017-10-04T16:01:50.884Z,14.71
2017-10-04T16:04:18.566Z,14.68
2017-10-04T16:06:46.215Z,14.58
2017-10-04T16:09:13.026Z,14.55
2017-10-04T16:11:39.851Z,14.50
2017-10-04T16:14:06.743Z,14.42
2017-10-04T16:16:33.565Z,14.53
2017-10-04T16:19:00.352Z,14.52
2017-10-04T16:21:27.904Z,14.48
2017-10-04T16:23:54.754Z,14.57
2017-10-04T16:26:21.575Z,14.41
2017-10-04T16:28:48.410Z,14.16
2017-10-04T16:31:16.038Z,14.32
2017-10-04T16:33:43.381Z,14.46
2017-10-04T16:36:10.215Z,14.44
2017-10-04T16:38:37.814Z,14.27
2017-10-04T16:41:06.238Z,14.36
2017-10-04T16:43:33.009Z,14.46
2017-10-04T16:45:59.819Z,14.12
2017-10-04T16:48:27.368Z,14.29
2017-10-04T16:50:54.348Z,14.11
2017-10-04T16:53:22.040Z,14.25
2017-10-04T16:55:49.654Z,14.17
2017-10-04T16:58:16.531Z,14.07
2017-10-04T17:00:43.731Z,14.28
2017-10-04T17:03:10.608Z,14.22
2017-10-04T17:05:38.570Z,14.23
2017-10-04T17:08:05.638Z,14.10
2017-10-04T17:10:32.520Z,14.27
2017-10-04T17:13:00.422Z,14.30
2017-10-04T17:15:27.999Z,14.14
2017-10-04T17:17:55.845Z,14.31
2017-10-04T17:20:23.211Z,14.19
2017-10-04T17:22:50.145Z,14.15
2017-10-04T17:25:16.985Z,14.19
2017-10-04T17:27:43.816Z,13.97
2017-10-04T17:30:10.775Z,14.14
2017-10-04T17:32:41.733Z,14.15
2017-10-04T17:35:08.552Z,14.19
2017-10-04T17:37:36.659Z,14.11
2017-10-04T17:40:03.535Z,14.17
2017-10-04T17:42:30.370Z,14.17
2017-10-04T17:44:57.235Z,14.20
2017-10-04T17:47:24.520Z,14.21
2017-10-04T17:49:51.554Z,14.29
2017-10-04T17:52:18.530Z,14.25
2017-10-04T17:54:45.714Z,14.17
2017-10-04T17:57:12.639Z,14.01
2017-10-04T17:59:39.546Z,14.20
2017-10-04T18:02:07.086Z,13.92
2017-10-04T18:04:35.079Z,13.95
2017-10-04T18:07:02.263Z,14.14
2017-10-04T18:09:29.179Z,13.96
2017-10-04T18:11:58.085Z,14.16
2017-10-04T18:14:25.853Z,14.17
2017-10-04T18:16:53.854Z,13.93
2017-10-04T18:19:22.102Z,14.10
2017-10-04T18:21:48.964Z,14.01
2017-10-04T18:24:16.423Z,13.96
2017-10-04T18:26:43.294Z,13.94
2017-10-04T18:29:10.387Z,13.94
2017-10-04T18:31:37.360Z,14.07
2017-10-04T18:34:04.722Z,13.90
2017-10-04T18:36:32.763Z,13.93
2017-10-04T18:39:01.384Z,14.09
2017-10-04T18:41:28.938Z,14.12
2017-10-04T18:43:55.976Z,14.06
2017-10-04T18:46:25.559Z,14.17
2017-10-04T18:48:54.505Z,13.96
2017-10-04T18:51:23.399Z,13.99
2017-10-04T18:53:51.409Z,13.96
2017-10-04T18:56:19.069Z,13.93
2017-10-04T18:58:45.991Z,14.10
2017-10-04T19:01:14.201Z,13.89
2017-10-04T19:03:43.803Z,13.84
2017-10-04T19:06:13.375Z,13.91
2017-10-04T19:08:41.819Z,13.94
2017-10-04T19:11:09.971Z,14.04
2017-10-04T19:13:38.667Z,13.92
2017-10-04T19:16:07.351Z,13.92
2017-10-04T19:18:36.838Z,13.96
2017-10-04T19:21:07.536Z,14.01
2017-10-04T19:23:36.358Z,14.00
2017-10-04T19:26:05.006Z,13.99
2017-10-04T19:28:33.880Z,14.01
2017-10-04T19:31:00.999Z,13.93
2017-10-04T19:33:28.365Z,13.89
2017-10-04T19:35:55.279Z,13.97
2017-10-04T19:38:23.792Z,14.03
2017-10-04T19:40:52.178Z,13.94
2017-10-04T19:43:19.569Z,13.94
2017-10-04T19:45:48.213Z,13.86
2017-10-04T19:48:15.722Z,13.94
2017-10-04T19:50:44.301Z,14.03
2017-10-04T19:53:12.848Z,13.96
2017-10-04T19:55:41.346Z,13.89
2017-10-04T19:58:09.214Z,13.90
2017-10-04T20:00:36.110Z,13.85
2017-10-04T20:03:03.790Z,13.92
2017-10-04T20:05:32.290Z,13.97
2017-10-04T20:08:00.919Z,13.92
2017-10-04T20:10:29.401Z,13.97
2017-10-04T20:12:58.118Z,14.01
2017-10-04T20:15:25.711Z,13.94
2017-10-04T20:17:53.404Z,13.95
2017-10-04T20:20:21.451Z,13.89
2017-10-04T20:22:48.444Z,13.98
2017-10-04T20:25:15.344Z,13.91
2017-10-04T20:27:43.307Z,13.96
2017-10-04T20:30:10.188Z,13.96
2017-10-04T20:32:37.863Z,13.95
2017-10-04T20:35:04.813Z,13.96
2017-10-04T20:37:32.392Z,13.97
2017-10-04T20:39:59.264Z,13.94
2017-10-04T20:42:27.381Z,13.98
2017-10-04T20:44:54.199Z,14.03
2017-10-04T20:47:21.013Z,14.01
2017-10-04T20:49:47.872Z,14.01
2017-10-04T20:52:14.770Z,13.97
2017-10-04T20:54:41.661Z,14.00
2017-10-04T20:57:09.258Z,13.95
2017-10-04T20:59:38.951Z,13.87
2017-10-04T21:02:08.609Z,13.98
2017-10-04T21:04:37.438Z,14.06
2017-10-04T21:07:04.360Z,14.05
2017-10-04T21:09:31.964Z,13.96
2017-10-04T21:11:58.778Z,13.96
2017-10-04T21:14:25.626Z,14.10
2017-10-04T21:19:20.656Z,13.99
2017-10-04T21:21:47.497Z,14.04
2017-10-04T21:24:14.375Z,14.00
2017-10-04T21:26:41.370Z,14.08
2017-10-04T21:29:08.231Z,14.07
2017-10-04T21:31:35.103Z,14.06
2017-10-04T21:34:01.960Z,13.93
2017-10-04T21:36:29.600Z,13.93
2017-10-04T21:38:56.433Z,13.97
2017-10-04T21:41:24.073Z,14.02
2017-10-04T21:43:50.965Z,14.08
2017-10-04T21:46:17.792Z,14.05
2017-10-04T21:48:44.678Z,14.02
2017-10-04T21:51:11.543Z,13.98
2017-10-04T21:53:38.403Z,14.08
2017-10-04T21:56:05.281Z,14.02
2017-10-04T21:58:32.140Z,14.04
2017-10-04T22:00:59.781Z,14.00
2017-10-04T22:03:26.626Z,14.02
2017-10-04T22:05:53.494Z,13.94
2017-10-04T22:08:20.393Z,14.03
2017-10-04T22:10:47.999Z,14.04
2017-10-04T22:13:14.840Z,14.05
2017-10-04T22:15:42.390Z,13.99
2017-10-04T22:18:09.249Z,14.03
2017-10-04T22:20:36.136Z,13.98
2017-10-04T22:23:03.028Z,13.94
2017-10-04T22:25:29.918Z,13.84
2017-10-04T22:27:56.769Z,13.76
2017-10-04T22:30:24.327Z,13.71
2017-10-04T22:32:51.202Z,13.90
2017-10-04T22:35:18.073Z,13.93
2017-10-04T22:37:44.947Z,13.91
2017-10-04T22:40:11.761Z,13.87
2017-10-04T22:42:39.325Z,13.81
2017-10-04T22:45:06.162Z,13.73
2017-10-04T22:47:33.045Z,13.68
2017-10-04T22:49:59.886Z,13.57
2017-10-04T22:52:26.684Z,13.69
2017-10-04T22:54:54.199Z,13.65
2017-10-04T22:57:21.033Z,13.58
2017-10-04T22:59:47.840Z,13.49
2017-10-04T23:02:14.730Z,13.63
2017-10-04T23:04:42.309Z,13.52
2017-10-04T23:07:09.538Z,13.46
2017-10-04T23:09:36.640Z,13.57
2017-10-04T23:12:03.542Z,13.52
2017-10-04T23:14:30.823Z,13.55
2017-10-04T23:16:58.390Z,13.55
2017-10-04T23:19:25.248Z,13.37
2017-10-04T23:21:52.095Z,13.41
2017-10-04T23:24:19.666Z,13.39
2017-10-04T23:26:47.225Z,13.44
2017-10-04T23:29:14.061Z,13.44
2017-10-04T23:31:40.868Z,13.52
2017-10-04T23:34:08.512Z,13.45
2017-10-04T23:36:36.148Z,13.43
2017-10-04T23:39:03.332Z,13.43
2017-10-04T23:41:30.129Z,13.48
2017-10-04T23:43:56.978Z,13.29
2017-10-04T23:46:23.817Z,13.25
2017-10-04T23:48:50.702Z,13.28
2017-10-04T23:51:17.488Z,13.20
2017-10-04T23:53:44.313Z,13.24
2017-10-04T23:56:11.209Z,13.28
2017-10-04T23:58:38.086Z,13.29
